Terminal Aerodrome Forecast
Issued by NWS Nashville, TN

Home | Current Version | Previous Version | Text Only | Print | Product List | Glossary On
Versions: 1 2 3 4 5 6 7 8 9 10 11 12 13 14 15 16 17 18 19 20 21 22 23 24 25 26 27 28
000
FTUS44 KOHX 241735
TAFBNA
TAF
KBNA 241735Z 2418/2518 19020G29KT P6SM SCT040 BKN250
     FM242300 21014G22KT P6SM VCSH BKN050
     FM250300 21011G20KT 2SM TSRA OVC025CB
     FM250500 28011G17KT P6SM BKN050
     FM251200 28011KT P6SM BKN025
     FM251500 29014G20KT P6SM BKN050=

USA.gov is the U.S. government's official web portal to all federal, state and local government web resources and services.